Disclaimer

Please do not use the information listed here in-flight or in-navigation, as they are not provided to us by the airports but are provided by volunteers, so they might be outdated.

Search


Regions


Airport information page

Radio informations:
Tower (TWR) - 120.5 MHz
Ground (GND) - 121.7 MHz
RADAR - 125.7 MHz
Clearance delivery - 118.6 MHz
Automatic Terminal Information Service (ATIS) - 113.2 MHz
Approach/Departure (APP/DEP) - 124.35 MHz

Airport informations:
Latitude: 27° 23' 03.00" S
Longitude: 153° 07' 03.00" E
Elevation: 13 feet - 4 meters
Operating hours: N/A
Operating agency: Civil government, landing fees and diplomatic clearance may be required
Timezone: UTC+10
Fuel: Jet A1, without icing nhibitor.

100/130 MIL Spec, low lead, aviation gasoline (BLUE)

Runway information:
01/19 - 11680 x 148 feet< - >3560 x 45 meters
14/32 - 5577 x 98 feet< - >1700 x 30 meters

Recent METARs:
YBBN 170000Z 01008KT 9999 FEW035 27/16 Q1015
YBBN 170000Z 01008KT 9999 FEW035 27/16 Q1015
YBBN 170100Z 02009KT 9999 FEW035 27/17 Q1015

Airport on the map: